createdAt,value
2023-02-09T00:14:05.643Z,-2.2
2023-02-09T00:29:05.722Z,-1.8
2023-02-09T00:44:05.628Z,-1.8
2023-02-09T00:59:05.688Z,-2
2023-02-09T01:14:05.625Z,-2.4
2023-02-09T01:29:05.713Z,-2.4
2023-02-09T01:44:05.643Z,-2.3
2023-02-09T01:59:05.697Z,-2.2
2023-02-09T02:14:05.635Z,-2.4
2023-02-09T02:29:05.672Z,-2.3
2023-02-09T02:44:05.615Z,-2.2
2023-02-09T03:14:05.666Z,-2.6
2023-02-09T03:29:05.732Z,-2.6
2023-02-09T03:44:05.747Z,-2.4
2023-02-09T03:59:05.710Z,-2.4
2023-02-09T04:14:05.711Z,-2.4
2023-02-09T04:29:05.681Z,-2.4
2023-02-09T04:44:05.676Z,-2.6
2023-02-09T04:59:05.739Z,-2.5
2023-02-09T05:14:05.650Z,-2.6
2023-02-09T05:29:05.730Z,-2.5
2023-02-09T05:44:05.666Z,-2.5
2023-02-09T05:59:05.724Z,-2.6
2023-02-09T06:14:05.713Z,-2.6
2023-02-09T06:29:05.665Z,-2.7
2023-02-09T06:44:05.682Z,-2.4
2023-02-09T06:59:05.641Z,-2.6
2023-02-09T07:14:05.643Z,-2.2
2023-02-09T07:29:05.765Z,-2
2023-02-09T07:44:05.709Z,-1.7
2023-02-09T07:59:05.723Z,-1.1
2023-02-09T08:14:05.735Z,-0.9
2023-02-09T08:29:05.731Z,-0.2
2023-02-09T08:44:05.640Z,-0.1
2023-02-09T08:59:05.725Z,0.2
2023-02-09T09:14:05.641Z,0.8
2023-02-09T09:29:05.728Z,0.9
2023-02-09T09:44:05.658Z,1.2
2023-02-09T09:59:05.747Z,1.6
2023-02-09T10:14:05.737Z,1.8
2023-02-09T10:29:05.754Z,2.1
2023-02-09T10:44:05.740Z,2.3
2023-02-09T10:59:05.672Z,2.7
2023-02-09T11:14:05.753Z,2.8
2023-02-09T11:29:05.734Z,3.2
2023-02-09T11:44:05.615Z,3.4
2023-02-09T11:59:05.744Z,3.6
2023-02-09T12:14:05.763Z,3.7
2023-02-09T12:29:05.725Z,3.8
2023-02-09T12:44:05.635Z,3.9
2023-02-09T12:59:05.733Z,4
2023-02-09T13:14:05.755Z,4.1
2023-02-09T13:29:18.398Z,4.2
2023-02-09T13:44:05.617Z,4.6
2023-02-09T13:59:05.734Z,4.7
2023-02-09T14:14:05.606Z,4.8
2023-02-09T14:29:05.741Z,4.9
2023-02-09T14:44:05.741Z,4.7
2023-02-09T14:59:05.626Z,4.5
2023-02-09T15:14:05.624Z,4.4
2023-02-09T15:29:05.723Z,4.3
2023-02-09T15:44:05.682Z,4.1
2023-02-09T15:59:05.753Z,3.9
2023-02-09T16:14:05.652Z,3.8
2023-02-09T16:29:05.742Z,3.6
2023-02-09T16:44:05.752Z,3.2
2023-02-09T16:59:05.686Z,2.9
2023-02-09T17:14:05.653Z,2.6
2023-02-09T17:29:05.716Z,2.9
2023-02-09T17:44:17.923Z,2.8
2023-02-09T17:59:05.732Z,2.8
2023-02-09T18:14:05.644Z,3
2023-02-09T18:29:05.758Z,3.1
2023-02-09T18:44:05.626Z,3.1
2023-02-09T18:59:05.721Z,3.2
2023-02-09T19:14:05.647Z,3.2
2023-02-09T19:29:05.727Z,3.2
2023-02-09T19:44:05.722Z,3.1
2023-02-09T19:59:05.740Z,3.2
2023-02-09T20:14:05.653Z,3.2
2023-02-09T20:29:05.621Z,3.1
2023-02-09T20:44:05.642Z,3.1
2023-02-09T20:59:05.715Z,3.1
2023-02-09T21:14:05.648Z,3.1
2023-02-09T21:29:05.683Z,3.1
2023-02-09T21:44:05.632Z,3.1
2023-02-09T21:59:05.730Z,3.1
2023-02-09T22:14:05.662Z,3
2023-02-09T22:29:05.736Z,3
2023-02-09T22:44:05.727Z,3
2023-02-09T22:59:05.746Z,3
2023-02-09T23:14:10.597Z,2.9
2023-02-09T23:29:05.704Z,2.9
2023-02-09T23:44:05.646Z,2.9
2023-02-09T23:59:05.728Z,2.9
